sensor_id;sensor_type;location;lat;lon;timestamp;P1;durP1;ratioP1;P2;durP2;ratioP2
39214;SDS011;24932;51.746;14.334;2023-02-15T00:00:40;81.97;;;26.13;;
39214;SDS011;24932;51.746;14.334;2023-02-15T00:04:40;79.07;;;26.33;;
39214;SDS011;24932;51.746;14.334;2023-02-15T00:08:41;97.1;;;27.67;;
39214;SDS011;24932;51.746;14.334;2023-02-15T00:12:40;95.03;;;28.67;;
39214;SDS011;24932;51.746;14.334;2023-02-15T00:16:41;96.6;;;28.83;;
39214;SDS011;24932;51.746;14.334;2023-02-15T00:20:40;91.7;;;27.07;;
39214;SDS011;24932;51.746;14.334;2023-02-15T00:24:40;92.03;;;28.9;;
39214;SDS011;24932;51.746;14.334;2023-02-15T00:28:40;103.7;;;28.87;;
39214;SDS011;24932;51.746;14.334;2023-02-15T00:32:40;104.87;;;30.63;;
39214;SDS011;24932;51.746;14.334;2023-02-15T00:36:40;86.63;;;28.1;;
39214;SDS011;24932;51.746;14.334;2023-02-15T00:40:40;99.53;;;27.9;;
39214;SDS011;24932;51.746;14.334;2023-02-15T00:44:39;99.9;;;32.6;;
39214;SDS011;24932;51.746;14.334;2023-02-15T00:48:40;100.17;;;31.3;;
39214;SDS011;24932;51.746;14.334;2023-02-15T00:52:40;99.17;;;29.13;;
39214;SDS011;24932;51.746;14.334;2023-02-15T00:56:41;97.97;;;28.47;;
39214;SDS011;24932;51.746;14.334;2023-02-15T01:00:41;96.83;;;30.4;;
39214;SDS011;24932;51.746;14.334;2023-02-15T01:04:40;96.57;;;30.8;;
39214;SDS011;24932;51.746;14.334;2023-02-15T01:08:40;91.97;;;29.13;;
39214;SDS011;24932;51.746;14.334;2023-02-15T01:12:40;92.53;;;30.83;;
39214;SDS011;24932;51.746;14.334;2023-02-15T01:16:41;88.8;;;29.87;;
39214;SDS011;24932;51.746;14.334;2023-02-15T01:20:40;97.3;;;31.03;;
39214;SDS011;24932;51.746;14.334;2023-02-15T01:24:41;87.77;;;28.2;;
39214;SDS011;24932;51.746;14.334;2023-02-15T01:28:40;106.47;;;31.37;;
39214;SDS011;24932;51.746;14.334;2023-02-15T01:32:41;100.5;;;29.3;;
39214;SDS011;24932;51.746;14.334;2023-02-15T01:36:40;88.8;;;29.7;;
39214;SDS011;24932;51.746;14.334;2023-02-15T01:40:40;81.67;;;28.8;;
39214;SDS011;24932;51.746;14.334;2023-02-15T01:44:46;86.9;;;28.17;;
39214;SDS011;24932;51.746;14.334;2023-02-15T01:48:41;92.97;;;29.53;;
39214;SDS011;24932;51.746;14.334;2023-02-15T01:52:40;85.47;;;29.27;;
39214;SDS011;24932;51.746;14.334;2023-02-15T01:56:41;105.33;;;30.93;;
39214;SDS011;24932;51.746;14.334;2023-02-15T02:00:41;85.2;;;27.3;;
39214;SDS011;24932;51.746;14.334;2023-02-15T02:04:41;76.73;;;28.23;;
39214;SDS011;24932;51.746;14.334;2023-02-15T02:08:40;89.43;;;28.4;;
39214;SDS011;24932;51.746;14.334;2023-02-15T02:12:40;91.53;;;27.67;;
39214;SDS011;24932;51.746;14.334;2023-02-15T02:16:42;84.07;;;28.77;;
39214;SDS011;24932;51.746;14.334;2023-02-15T02:20:51;79.47;;;27.43;;
39214;SDS011;24932;51.746;14.334;2023-02-15T02:24:47;96.53;;;30.8;;
39214;SDS011;24932;51.746;14.334;2023-02-15T02:28:47;85.53;;;26.8;;
39214;SDS011;24932;51.746;14.334;2023-02-15T02:32:46;90.6;;;26.23;;
39214;SDS011;24932;51.746;14.334;2023-02-15T02:36:41;88.1;;;25.4;;
39214;SDS011;24932;51.746;14.334;2023-02-15T02:40:43;85.57;;;28.4;;
39214;SDS011;24932;51.746;14.334;2023-02-15T02:44:41;89.27;;;25.33;;
39214;SDS011;24932;51.746;14.334;2023-02-15T02:48:40;71.33;;;25.07;;
39214;SDS011;24932;51.746;14.334;2023-02-15T02:52:41;72.3;;;25.93;;
39214;SDS011;24932;51.746;14.334;2023-02-15T02:56:41;78.3;;;26.17;;
39214;SDS011;24932;51.746;14.334;2023-02-15T03:00:41;82.7;;;27.9;;
39214;SDS011;24932;51.746;14.334;2023-02-15T03:04:41;79.93;;;25.77;;
39214;SDS011;24932;51.746;14.334;2023-02-15T03:08:42;70.7;;;26.77;;
39214;SDS011;24932;51.746;14.334;2023-02-15T03:12:40;100.13;;;28.47;;
39214;SDS011;24932;51.746;14.334;2023-02-15T03:16:40;78.83;;;26.43;;
39214;SDS011;24932;51.746;14.334;2023-02-15T03:20:41;76.17;;;26.4;;
39214;SDS011;24932;51.746;14.334;2023-02-15T03:24:41;74.43;;;26.53;;
39214;SDS011;24932;51.746;14.334;2023-02-15T03:28:41;80.63;;;27.27;;
39214;SDS011;24932;51.746;14.334;2023-02-15T03:32:40;81.33;;;25.83;;
39214;SDS011;24932;51.746;14.334;2023-02-15T03:36:43;72.67;;;26.47;;
39214;SDS011;24932;51.746;14.334;2023-02-15T03:40:41;76.5;;;26.9;;
39214;SDS011;24932;51.746;14.334;2023-02-15T03:44:44;74.47;;;24.37;;
39214;SDS011;24932;51.746;14.334;2023-02-15T03:48:41;74.5;;;26.33;;
39214;SDS011;24932;51.746;14.334;2023-02-15T03:52:40;84.23;;;29.33;;
39214;SDS011;24932;51.746;14.334;2023-02-15T03:56:41;63.63;;;24.43;;
39214;SDS011;24932;51.746;14.334;2023-02-15T04:00:42;75.3;;;26.87;;
39214;SDS011;24932;51.746;14.334;2023-02-15T04:04:41;77.63;;;26.93;;
39214;SDS011;24932;51.746;14.334;2023-02-15T04:08:40;77.53;;;25.13;;
39214;SDS011;24932;51.746;14.334;2023-02-15T04:12:40;79.77;;;24.2;;
39214;SDS011;24932;51.746;14.334;2023-02-15T04:16:40;72.0;;;25.83;;
39214;SDS011;24932;51.746;14.334;2023-02-15T04:20:42;61.73;;;23.4;;
39214;SDS011;24932;51.746;14.334;2023-02-15T04:24:40;78.63;;;26.5;;
39214;SDS011;24932;51.746;14.334;2023-02-15T04:28:40;67.2;;;26.27;;
39214;SDS011;24932;51.746;14.334;2023-02-15T04:32:40;85.17;;;29.57;;
39214;SDS011;24932;51.746;14.334;2023-02-15T04:36:41;76.17;;;26.53;;
39214;SDS011;24932;51.746;14.334;2023-02-15T04:40:40;78.07;;;26.93;;
39214;SDS011;24932;51.746;14.334;2023-02-15T04:44:40;74.6;;;27.73;;
39214;SDS011;24932;51.746;14.334;2023-02-15T04:48:40;84.07;;;27.83;;
39214;SDS011;24932;51.746;14.334;2023-02-15T04:52:41;82.33;;;26.73;;
39214;SDS011;24932;51.746;14.334;2023-02-15T04:56:40;75.03;;;25.43;;
39214;SDS011;24932;51.746;14.334;2023-02-15T05:00:40;88.23;;;27.9;;
39214;SDS011;24932;51.746;14.334;2023-02-15T05:04:40;81.83;;;25.67;;
39214;SDS011;24932;51.746;14.334;2023-02-15T05:08:41;73.4;;;26.23;;
39214;SDS011;24932;51.746;14.334;2023-02-15T05:12:40;77.1;;;25.23;;
39214;SDS011;24932;51.746;14.334;2023-02-15T05:16:41;84.23;;;29.07;;
39214;SDS011;24932;51.746;14.334;2023-02-15T05:20:41;70.3;;;25.97;;
39214;SDS011;24932;51.746;14.334;2023-02-15T05:24:40;69.13;;;28.1;;
39214;SDS011;24932;51.746;14.334;2023-02-15T05:28:39;74.43;;;25.8;;
39214;SDS011;24932;51.746;14.334;2023-02-15T05:32:40;87.3;;;26.57;;
39214;SDS011;24932;51.746;14.334;2023-02-15T05:36:40;68.7;;;26.07;;
39214;SDS011;24932;51.746;14.334;2023-02-15T05:40:40;75.57;;;28.03;;
39214;SDS011;24932;51.746;14.334;2023-02-15T05:44:40;79.17;;;26.77;;
39214;SDS011;24932;51.746;14.334;2023-02-15T05:48:40;75.2;;;27.33;;
39214;SDS011;24932;51.746;14.334;2023-02-15T05:52:40;83.7;;;29.7;;
39214;SDS011;24932;51.746;14.334;2023-02-15T05:56:40;75.17;;;28.0;;
39214;SDS011;24932;51.746;14.334;2023-02-15T06:00:40;72.73;;;27.7;;
39214;SDS011;24932;51.746;14.334;2023-02-15T06:04:41;62.2;;;24.6;;
39214;SDS011;24932;51.746;14.334;2023-02-15T06:08:40;75.23;;;28.03;;
39214;SDS011;24932;51.746;14.334;2023-02-15T06:12:39;84.87;;;28.93;;
39214;SDS011;24932;51.746;14.334;2023-02-15T06:16:40;79.97;;;29.27;;
39214;SDS011;24932;51.746;14.334;2023-02-15T06:20:40;85.77;;;30.13;;
39214;SDS011;24932;51.746;14.334;2023-02-15T06:24:40;63.5;;;25.6;;
39214;SDS011;24932;51.746;14.334;2023-02-15T06:28:40;65.77;;;23.73;;
39214;SDS011;24932;51.746;14.334;2023-02-15T06:32:41;73.13;;;24.57;;
39214;SDS011;24932;51.746;14.334;2023-02-15T06:36:40;76.47;;;27.77;;
39214;SDS011;24932;51.746;14.334;2023-02-15T06:40:40;83.83;;;27.63;;
39214;SDS011;24932;51.746;14.334;2023-02-15T06:44:40;70.73;;;25.33;;
39214;SDS011;24932;51.746;14.334;2023-02-15T06:48:40;77.8;;;27.8;;
39214;SDS011;24932;51.746;14.334;2023-02-15T06:52:40;77.17;;;28.1;;
39214;SDS011;24932;51.746;14.334;2023-02-15T06:56:41;82.6;;;28.9;;
39214;SDS011;24932;51.746;14.334;2023-02-15T07:00:40;74.73;;;27.43;;
39214;SDS011;24932;51.746;14.334;2023-02-15T07:04:40;91.93;;;31.67;;
39214;SDS011;24932;51.746;14.334;2023-02-15T07:08:40;99.17;;;31.73;;
39214;SDS011;24932;51.746;14.334;2023-02-15T07:12:41;94.13;;;31.13;;
39214;SDS011;24932;51.746;14.334;2023-02-15T07:16:40;94.4;;;33.37;;
39214;SDS011;24932;51.746;14.334;2023-02-15T07:20:40;97.47;;;33.7;;
39214;SDS011;24932;51.746;14.334;2023-02-15T07:24:40;108.63;;;35.67;;
39214;SDS011;24932;51.746;14.334;2023-02-15T07:28:41;104.37;;;36.03;;
39214;SDS011;24932;51.746;14.334;2023-02-15T07:32:40;115.87;;;38.07;;
39214;SDS011;24932;51.746;14.334;2023-02-15T07:36:41;117.77;;;39.6;;
39214;SDS011;24932;51.746;14.334;2023-02-15T07:40:40;129.1;;;39.63;;
39214;SDS011;24932;51.746;14.334;2023-02-15T07:44:40;125.93;;;38.1;;
39214;SDS011;24932;51.746;14.334;2023-02-15T07:48:41;125.3;;;41.5;;
39214;SDS011;24932;51.746;14.334;2023-02-15T07:52:40;130.3;;;41.7;;
39214;SDS011;24932;51.746;14.334;2023-02-15T07:56:41;126.97;;;40.43;;
39214;SDS011;24932;51.746;14.334;2023-02-15T08:00:40;130.87;;;41.7;;
39214;SDS011;24932;51.746;14.334;2023-02-15T08:04:41;131.17;;;41.9;;
39214;SDS011;24932;51.746;14.334;2023-02-15T08:08:40;134.9;;;41.2;;
39214;SDS011;24932;51.746;14.334;2023-02-15T08:12:40;143.8;;;45.3;;
39214;SDS011;24932;51.746;14.334;2023-02-15T08:16:41;139.97;;;44.27;;
39214;SDS011;24932;51.746;14.334;2023-02-15T08:20:40;138.9;;;43.7;;
39214;SDS011;24932;51.746;14.334;2023-02-15T08:24:40;129.23;;;42.7;;
39214;SDS011;24932;51.746;14.334;2023-02-15T08:28:40;157.83;;;48.17;;
39214;SDS011;24932;51.746;14.334;2023-02-15T08:32:41;153.57;;;47.93;;
39214;SDS011;24932;51.746;14.334;2023-02-15T08:36:40;157.13;;;48.8;;
39214;SDS011;24932;51.746;14.334;2023-02-15T08:40:40;141.87;;;45.5;;
39214;SDS011;24932;51.746;14.334;2023-02-15T08:44:40;145.17;;;46.33;;
39214;SDS011;24932;51.746;14.334;2023-02-15T08:48:40;129.4;;;43.53;;
39214;SDS011;24932;51.746;14.334;2023-02-15T08:52:40;128.73;;;42.77;;
39214;SDS011;24932;51.746;14.334;2023-02-15T08:56:41;129.17;;;44.57;;
39214;SDS011;24932;51.746;14.334;2023-02-15T09:00:40;120.3;;;41.87;;
39214;SDS011;24932;51.746;14.334;2023-02-15T09:04:40;113.0;;;42.17;;
39214;SDS011;24932;51.746;14.334;2023-02-15T09:08:40;109.07;;;40.07;;
39214;SDS011;24932;51.746;14.334;2023-02-15T09:12:40;107.8;;;38.73;;
39214;SDS011;24932;51.746;14.334;2023-02-15T09:16:41;102.9;;;39.87;;
39214;SDS011;24932;51.746;14.334;2023-02-15T09:20:40;98.6;;;40.83;;
39214;SDS011;24932;51.746;14.334;2023-02-15T09:24:40;92.93;;;39.57;;
39214;SDS011;24932;51.746;14.334;2023-02-15T09:28:40;90.37;;;38.43;;
39214;SDS011;24932;51.746;14.334;2023-02-15T09:32:40;88.57;;;37.93;;
39214;SDS011;24932;51.746;14.334;2023-02-15T09:36:41;84.7;;;36.33;;
39214;SDS011;24932;51.746;14.334;2023-02-15T09:40:43;75.1;;;34.73;;
39214;SDS011;24932;51.746;14.334;2023-02-15T09:44:47;69.4;;;32.37;;
39214;SDS011;24932;51.746;14.334;2023-02-15T09:48:40;73.87;;;31.5;;
39214;SDS011;24932;51.746;14.334;2023-02-15T09:52:46;58.33;;;29.23;;
39214;SDS011;24932;51.746;14.334;2023-02-15T09:56:42;69.3;;;29.73;;
39214;SDS011;24932;51.746;14.334;2023-02-15T10:00:43;61.13;;;29.17;;
39214;SDS011;24932;51.746;14.334;2023-02-15T10:04:44;63.87;;;29.7;;
39214;SDS011;24932;51.746;14.334;2023-02-15T10:08:48;58.73;;;26.73;;
39214;SDS011;24932;51.746;14.334;2023-02-15T10:12:45;51.15;;;25.12;;
39214;SDS011;24932;51.746;14.334;2023-02-15T10:16:42;54.13;;;27.02;;
39214;SDS011;24932;51.746;14.334;2023-02-15T10:20:45;46.35;;;24.02;;
39214;SDS011;24932;51.746;14.334;2023-02-15T10:24:46;43.55;;;23.4;;
39214;SDS011;24932;51.746;14.334;2023-02-15T10:28:42;48.0;;;24.3;;
39214;SDS011;24932;51.746;14.334;2023-02-15T10:32:43;43.9;;;24.5;;
39214;SDS011;24932;51.746;14.334;2023-02-15T10:36:45;51.0;;;24.58;;
39214;SDS011;24932;51.746;14.334;2023-02-15T10:40:44;44.4;;;24.27;;
39214;SDS011;24932;51.746;14.334;2023-02-15T10:44:44;41.42;;;22.15;;
39214;SDS011;24932;51.746;14.334;2023-02-15T10:48:46;42.67;;;21.2;;
39214;SDS011;24932;51.746;14.334;2023-02-15T10:52:44;46.42;;;23.65;;
39214;SDS011;24932;51.746;14.334;2023-02-15T10:56:42;40.45;;;22.1;;
39214;SDS011;24932;51.746;14.334;2023-02-15T11:00:41;44.28;;;22.67;;
39214;SDS011;24932;51.746;14.334;2023-02-15T11:04:45;43.17;;;21.92;;
39214;SDS011;24932;51.746;14.334;2023-02-15T11:08:41;40.05;;;22.52;;
39214;SDS011;24932;51.746;14.334;2023-02-15T11:12:40;40.58;;;20.85;;
39214;SDS011;24932;51.746;14.334;2023-02-15T11:16:42;40.72;;;21.25;;
39214;SDS011;24932;51.746;14.334;2023-02-15T11:20:42;41.2;;;21.75;;
39214;SDS011;24932;51.746;14.334;2023-02-15T11:24:41;41.7;;;21.05;;
39214;SDS011;24932;51.746;14.334;2023-02-15T11:28:43;43.75;;;21.98;;
39214;SDS011;24932;51.746;14.334;2023-02-15T11:32:41;39.47;;;21.52;;
39214;SDS011;24932;51.746;14.334;2023-02-15T11:36:40;40.2;;;20.37;;
39214;SDS011;24932;51.746;14.334;2023-02-15T11:40:41;39.2;;;20.35;;
39214;SDS011;24932;51.746;14.334;2023-02-15T11:44:41;41.08;;;22.25;;
39214;SDS011;24932;51.746;14.334;2023-02-15T11:48:41;37.67;;;18.73;;
39214;SDS011;24932;51.746;14.334;2023-02-15T11:52:40;36.6;;;19.42;;
39214;SDS011;24932;51.746;14.334;2023-02-15T11:56:40;35.65;;;20.85;;
39214;SDS011;24932;51.746;14.334;2023-02-15T12:00:41;39.0;;;21.7;;
39214;SDS011;24932;51.746;14.334;2023-02-15T12:04:41;35.45;;;20.55;;
39214;SDS011;24932;51.746;14.334;2023-02-15T12:08:42;41.88;;;22.2;;
39214;SDS011;24932;51.746;14.334;2023-02-15T12:12:41;38.15;;;21.55;;
39214;SDS011;24932;51.746;14.334;2023-02-15T12:16:41;37.25;;;21.3;;
39214;SDS011;24932;51.746;14.334;2023-02-15T12:20:40;35.22;;;19.27;;
39214;SDS011;24932;51.746;14.334;2023-02-15T12:24:43;38.63;;;19.85;;
39214;SDS011;24932;51.746;14.334;2023-02-15T12:28:41;41.5;;;20.62;;
39214;SDS011;24932;51.746;14.334;2023-02-15T12:32:46;50.7;;;22.98;;
39214;SDS011;24932;51.746;14.334;2023-02-15T12:36:41;31.92;;;19.23;;
39214;SDS011;24932;51.746;14.334;2023-02-15T12:40:40;33.88;;;19.15;;
39214;SDS011;24932;51.746;14.334;2023-02-15T12:44:52;36.63;;;19.2;;
39214;SDS011;24932;51.746;14.334;2023-02-15T12:48:41;36.78;;;19.77;;
39214;SDS011;24932;51.746;14.334;2023-02-15T12:52:40;38.63;;;19.17;;
39214;SDS011;24932;51.746;14.334;2023-02-15T12:56:40;31.12;;;18.85;;
39214;SDS011;24932;51.746;14.334;2023-02-15T13:00:40;29.65;;;18.05;;
39214;SDS011;24932;51.746;14.334;2023-02-15T13:04:46;39.0;;;18.87;;
39214;SDS011;24932;51.746;14.334;2023-02-15T13:08:46;35.55;;;20.33;;
39214;SDS011;24932;51.746;14.334;2023-02-15T13:12:40;35.0;;;18.52;;
39214;SDS011;24932;51.746;14.334;2023-02-15T13:16:40;34.13;;;19.2;;
39214;SDS011;24932;51.746;14.334;2023-02-15T13:20:40;31.05;;;19.23;;
39214;SDS011;24932;51.746;14.334;2023-02-15T13:24:41;33.92;;;19.25;;
39214;SDS011;24932;51.746;14.334;2023-02-15T13:28:42;27.58;;;17.23;;
39214;SDS011;24932;51.746;14.334;2023-02-15T13:32:41;28.83;;;17.02;;
39214;SDS011;24932;51.746;14.334;2023-02-15T13:36:42;30.9;;;17.52;;
39214;SDS011;24932;51.746;14.334;2023-02-15T13:40:41;30.42;;;16.77;;
39214;SDS011;24932;51.746;14.334;2023-02-15T13:44:47;30.25;;;17.52;;
39214;SDS011;24932;51.746;14.334;2023-02-15T13:48:52;27.85;;;15.48;;
39214;SDS011;24932;51.746;14.334;2023-02-15T13:52:41;29.83;;;16.55;;
39214;SDS011;24932;51.746;14.334;2023-02-15T13:56:44;27.73;;;16.08;;
39214;SDS011;24932;51.746;14.334;2023-02-15T14:00:43;28.75;;;16.0;;
39214;SDS011;24932;51.746;14.334;2023-02-15T14:04:48;27.37;;;16.55;;
39214;SDS011;24932;51.746;14.334;2023-02-15T14:08:44;31.05;;;17.67;;
39214;SDS011;24932;51.746;14.334;2023-02-15T14:12:45;29.4;;;16.8;;
39214;SDS011;24932;51.746;14.334;2023-02-15T14:16:43;27.23;;;16.08;;
39214;SDS011;24932;51.746;14.334;2023-02-15T14:20:43;29.3;;;15.07;;
39214;SDS011;24932;51.746;14.334;2023-02-15T14:24:41;26.1;;;14.38;;
39214;SDS011;24932;51.746;14.334;2023-02-15T14:28:41;26.7;;;15.55;;
39214;SDS011;24932;51.746;14.334;2023-02-15T14:32:41;27.85;;;14.95;;
39214;SDS011;24932;51.746;14.334;2023-02-15T14:36:40;27.73;;;15.5;;
39214;SDS011;24932;51.746;14.334;2023-02-15T14:40:42;30.48;;;17.25;;
39214;SDS011;24932;51.746;14.334;2023-02-15T14:44:42;24.87;;;15.0;;
39214;SDS011;24932;51.746;14.334;2023-02-15T14:48:41;25.45;;;15.0;;
39214;SDS011;24932;51.746;14.334;2023-02-15T14:52:49;24.45;;;15.82;;
39214;SDS011;24932;51.746;14.334;2023-02-15T14:56:40;26.83;;;16.33;;
39214;SDS011;24932;51.746;14.334;2023-02-15T15:00:40;26.6;;;17.1;;
39214;SDS011;24932;51.746;14.334;2023-02-15T15:04:41;26.75;;;17.75;;
39214;SDS011;24932;51.746;14.334;2023-02-15T15:08:40;27.02;;;17.2;;
39214;SDS011;24932;51.746;14.334;2023-02-15T15:12:41;27.8;;;17.9;;
39214;SDS011;24932;51.746;14.334;2023-02-15T15:16:56;25.6;;;17.1;;
39214;SDS011;24932;51.746;14.334;2023-02-15T15:20:42;32.4;;;19.12;;
39214;SDS011;24932;51.746;14.334;2023-02-15T15:24:48;28.3;;;18.33;;
39214;SDS011;24932;51.746;14.334;2023-02-15T15:28:57;28.45;;;17.6;;
39214;SDS011;24932;51.746;14.334;2023-02-15T15:32:41;25.3;;;17.4;;
39214;SDS011;24932;51.746;14.334;2023-02-15T15:37:46;28.75;;;19.15;;
39214;SDS011;24932;51.746;14.334;2023-02-15T15:40:41;29.45;;;18.45;;
39214;SDS011;24932;51.746;14.334;2023-02-15T15:44:49;31.08;;;17.95;;
39214;SDS011;24932;51.746;14.334;2023-02-15T15:48:40;30.92;;;17.5;;
39214;SDS011;24932;51.746;14.334;2023-02-15T15:52:41;27.62;;;17.2;;
39214;SDS011;24932;51.746;14.334;2023-02-15T15:56:40;29.95;;;17.92;;
39214;SDS011;24932;51.746;14.334;2023-02-15T16:00:42;36.92;;;18.75;;
39214;SDS011;24932;51.746;14.334;2023-02-15T16:04:41;37.75;;;20.4;;
39214;SDS011;24932;51.746;14.334;2023-02-15T16:08:40;35.22;;;20.08;;
39214;SDS011;24932;51.746;14.334;2023-02-15T16:12:40;40.95;;;20.12;;
39214;SDS011;24932;51.746;14.334;2023-02-15T16:16:40;43.85;;;21.65;;
39214;SDS011;24932;51.746;14.334;2023-02-15T16:20:40;43.0;;;19.77;;
39214;SDS011;24932;51.746;14.334;2023-02-15T16:24:47;39.05;;;21.25;;
39214;SDS011;24932;51.746;14.334;2023-02-15T16:28:46;41.95;;;22.23;;
39214;SDS011;24932;51.746;14.334;2023-02-15T16:32:41;42.83;;;22.25;;
39214;SDS011;24932;51.746;14.334;2023-02-15T16:36:40;45.47;;;24.48;;
39214;SDS011;24932;51.746;14.334;2023-02-15T16:40:41;47.0;;;23.6;;
39214;SDS011;24932;51.746;14.334;2023-02-15T16:44:40;48.17;;;24.45;;
39214;SDS011;24932;51.746;14.334;2023-02-15T16:48:41;50.7;;;24.63;;
39214;SDS011;24932;51.746;14.334;2023-02-15T16:52:41;53.3;;;25.63;;
39214;SDS011;24932;51.746;14.334;2023-02-15T16:56:40;50.1;;;24.3;;
39214;SDS011;24932;51.746;14.334;2023-02-15T17:00:41;53.37;;;24.43;;
39214;SDS011;24932;51.746;14.334;2023-02-15T17:04:40;53.1;;;25.0;;
39214;SDS011;24932;51.746;14.334;2023-02-15T17:08:41;53.23;;;24.9;;
39214;SDS011;24932;51.746;14.334;2023-02-15T17:12:44;50.53;;;25.63;;
39214;SDS011;24932;51.746;14.334;2023-02-15T17:16:42;57.23;;;25.33;;
39214;SDS011;24932;51.746;14.334;2023-02-15T17:20:41;59.8;;;26.23;;
39214;SDS011;24932;51.746;14.334;2023-02-15T17:24:41;53.73;;;24.2;;
39214;SDS011;24932;51.746;14.334;2023-02-15T17:28:44;54.17;;;25.63;;
39214;SDS011;24932;51.746;14.334;2023-02-15T17:32:43;57.0;;;25.83;;
39214;SDS011;24932;51.746;14.334;2023-02-15T17:36:51;54.83;;;25.57;;
39214;SDS011;24932;51.746;14.334;2023-02-15T17:40:40;65.23;;;28.77;;
39214;SDS011;24932;51.746;14.334;2023-02-15T17:44:40;56.5;;;26.5;;
39214;SDS011;24932;51.746;14.334;2023-02-15T17:48:40;57.27;;;27.63;;
39214;SDS011;24932;51.746;14.334;2023-02-15T17:52:40;57.8;;;25.73;;
39214;SDS011;24932;51.746;14.334;2023-02-15T17:56:40;57.5;;;25.2;;
39214;SDS011;24932;51.746;14.334;2023-02-15T18:00:41;52.63;;;24.2;;
39214;SDS011;24932;51.746;14.334;2023-02-15T18:04:40;55.57;;;25.0;;
39214;SDS011;24932;51.746;14.334;2023-02-15T18:08:40;55.5;;;22.5;;
39214;SDS011;24932;51.746;14.334;2023-02-15T18:12:40;52.2;;;23.1;;
39214;SDS011;24932;51.746;14.334;2023-02-15T18:16:41;50.47;;;22.9;;
39214;SDS011;24932;51.746;14.334;2023-02-15T18:20:40;56.6;;;22.73;;
39214;SDS011;24932;51.746;14.334;2023-02-15T18:24:40;55.2;;;23.83;;
39214;SDS011;24932;51.746;14.334;2023-02-15T18:28:40;58.47;;;26.03;;
39214;SDS011;24932;51.746;14.334;2023-02-15T18:32:40;61.27;;;25.17;;
39214;SDS011;24932;51.746;14.334;2023-02-15T18:36:41;59.7;;;24.0;;
39214;SDS011;24932;51.746;14.334;2023-02-15T18:40:40;65.33;;;26.03;;
39214;SDS011;24932;51.746;14.334;2023-02-15T18:44:43;57.93;;;23.6;;
39214;SDS011;24932;51.746;14.334;2023-02-15T18:48:40;63.1;;;24.97;;
39214;SDS011;24932;51.746;14.334;2023-02-15T18:52:40;50.63;;;23.0;;
39214;SDS011;24932;51.746;14.334;2023-02-15T18:56:40;61.03;;;25.23;;
39214;SDS011;24932;51.746;14.334;2023-02-15T19:00:40;63.4;;;24.23;;
39214;SDS011;24932;51.746;14.334;2023-02-15T19:04:40;60.5;;;25.33;;
39214;SDS011;24932;51.746;14.334;2023-02-15T19:08:40;63.93;;;25.2;;
39214;SDS011;24932;51.746;14.334;2023-02-15T19:12:41;63.47;;;25.9;;
39214;SDS011;24932;51.746;14.334;2023-02-15T19:16:40;62.47;;;24.1;;
39214;SDS011;24932;51.746;14.334;2023-02-15T19:24:40;64.27;;;24.57;;
39214;SDS011;24932;51.746;14.334;2023-02-15T19:28:41;64.93;;;26.07;;
39214;SDS011;24932;51.746;14.334;2023-02-15T19:32:40;62.4;;;24.73;;
39214;SDS011;24932;51.746;14.334;2023-02-15T19:36:41;59.23;;;23.67;;
39214;SDS011;24932;51.746;14.334;2023-02-15T19:40:40;59.47;;;24.17;;
39214;SDS011;24932;51.746;14.334;2023-02-15T19:44:40;64.57;;;23.77;;
39214;SDS011;24932;51.746;14.334;2023-02-15T19:48:40;57.13;;;22.0;;
39214;SDS011;24932;51.746;14.334;2023-02-15T19:52:41;60.6;;;22.37;;
39214;SDS011;24932;51.746;14.334;2023-02-15T19:56:40;58.37;;;23.27;;
39214;SDS011;24932;51.746;14.334;2023-02-15T20:00:41;71.73;;;23.57;;
39214;SDS011;24932;51.746;14.334;2023-02-15T20:04:40;60.97;;;23.87;;
39214;SDS011;24932;51.746;14.334;2023-02-15T20:08:41;62.17;;;23.4;;
39214;SDS011;24932;51.746;14.334;2023-02-15T20:12:42;62.97;;;23.87;;
39214;SDS011;24932;51.746;14.334;2023-02-15T20:16:40;64.2;;;21.1;;
39214;SDS011;24932;51.746;14.334;2023-02-15T20:20:41;55.0;;;21.43;;
39214;SDS011;24932;51.746;14.334;2023-02-15T20:24:40;63.73;;;24.5;;
39214;SDS011;24932;51.746;14.334;2023-02-15T20:28:40;58.93;;;22.67;;
39214;SDS011;24932;51.746;14.334;2023-02-15T20:32:41;70.97;;;22.93;;
39214;SDS011;24932;51.746;14.334;2023-02-15T20:36:40;63.93;;;23.57;;
39214;SDS011;24932;51.746;14.334;2023-02-15T20:40:40;59.0;;;22.4;;
39214;SDS011;24932;51.746;14.334;2023-02-15T20:44:40;60.13;;;23.27;;
39214;SDS011;24932;51.746;14.334;2023-02-15T20:48:40;63.27;;;22.5;;
39214;SDS011;24932;51.746;14.334;2023-02-15T20:52:41;58.87;;;22.87;;
39214;SDS011;24932;51.746;14.334;2023-02-15T20:56:40;68.17;;;23.73;;
39214;SDS011;24932;51.746;14.334;2023-02-15T21:00:40;65.23;;;24.8;;
39214;SDS011;24932;51.746;14.334;2023-02-15T21:04:39;67.13;;;24.03;;
39214;SDS011;24932;51.746;14.334;2023-02-15T21:08:41;73.53;;;24.13;;
39214;SDS011;24932;51.746;14.334;2023-02-15T21:12:40;62.43;;;22.53;;
39214;SDS011;24932;51.746;14.334;2023-02-15T21:16:40;68.2;;;23.4;;
39214;SDS011;24932;51.746;14.334;2023-02-15T21:20:41;62.4;;;24.0;;
39214;SDS011;24932;51.746;14.334;2023-02-15T21:24:42;53.7;;;22.63;;
39214;SDS011;24932;51.746;14.334;2023-02-15T21:28:41;66.13;;;22.73;;
39214;SDS011;24932;51.746;14.334;2023-02-15T21:32:41;65.17;;;23.3;;
39214;SDS011;24932;51.746;14.334;2023-02-15T21:36:41;68.37;;;26.0;;
39214;SDS011;24932;51.746;14.334;2023-02-15T21:40:40;69.6;;;23.7;;
39214;SDS011;24932;51.746;14.334;2023-02-15T21:44:40;66.67;;;23.9;;
39214;SDS011;24932;51.746;14.334;2023-02-15T21:48:39;75.97;;;26.3;;
39214;SDS011;24932;51.746;14.334;2023-02-15T21:52:40;69.07;;;24.57;;
39214;SDS011;24932;51.746;14.334;2023-02-15T21:56:40;68.17;;;25.03;;
39214;SDS011;24932;51.746;14.334;2023-02-15T22:00:40;64.83;;;24.23;;
39214;SDS011;24932;51.746;14.334;2023-02-15T22:04:40;66.53;;;23.43;;
39214;SDS011;24932;51.746;14.334;2023-02-15T22:08:42;69.73;;;24.3;;
39214;SDS011;24932;51.746;14.334;2023-02-15T22:12:41;55.8;;;20.83;;
39214;SDS011;24932;51.746;14.334;2023-02-15T22:16:40;62.23;;;23.43;;
39214;SDS011;24932;51.746;14.334;2023-02-15T22:20:41;67.2;;;22.63;;
39214;SDS011;24932;51.746;14.334;2023-02-15T22:24:40;57.33;;;22.4;;
39214;SDS011;24932;51.746;14.334;2023-02-15T22:28:40;68.17;;;22.13;;
39214;SDS011;24932;51.746;14.334;2023-02-15T22:32:40;67.8;;;22.83;;
39214;SDS011;24932;51.746;14.334;2023-02-15T22:36:40;61.7;;;22.93;;
39214;SDS011;24932;51.746;14.334;2023-02-15T22:40:40;71.2;;;22.57;;
39214;SDS011;24932;51.746;14.334;2023-02-15T22:44:40;60.2;;;22.13;;
39214;SDS011;24932;51.746;14.334;2023-02-15T22:48:40;61.83;;;22.57;;
39214;SDS011;24932;51.746;14.334;2023-02-15T22:52:40;57.63;;;21.97;;
39214;SDS011;24932;51.746;14.334;2023-02-15T22:56:41;60.97;;;21.6;;
39214;SDS011;24932;51.746;14.334;2023-02-15T23:00:41;61.5;;;22.33;;
39214;SDS011;24932;51.746;14.334;2023-02-15T23:04:40;70.23;;;24.8;;
39214;SDS011;24932;51.746;14.334;2023-02-15T23:08:40;55.03;;;23.2;;
39214;SDS011;24932;51.746;14.334;2023-02-15T23:12:41;62.97;;;22.4;;
39214;SDS011;24932;51.746;14.334;2023-02-15T23:16:40;71.37;;;25.97;;